Time;durP1;ratioP1;P1;durP2;ratioP2;P2;SDS_P1;SDS_P2;PMS_P1;PMS_P2;Temp;Humidity;BMP_temperature;BMP_pressure;BME280_temperature;BME280_humidity;BME280_pressure;Samples;Min_cycle;Max_cycle;Signal;HPM_P1;HPM_P2
2022/06/06 00:00:51;;;;;;;6.63;4.90;;;17.10;99.90;;;;;;4971122;28;20673;-75
2022/06/06 00:03:19;;;;;;;6.50;4.60;;;17.10;99.90;;;;;;4968290;28;20435;-75
2022/06/06 00:05:47;;;;;;;5.57;5.07;;;17.00;99.90;;;;;;4966676;28;20240;-74
2022/06/06 00:08:14;;;;;;;5.37;4.30;;;17.00;99.90;;;;;;4970015;28;20423;-76
2022/06/06 00:10:45;;;;;;;6.17;4.47;;;17.00;99.90;;;;;;4962170;28;20407;-73
2022/06/06 00:13:13;;;;;;;4.53;4.10;;;17.00;99.90;;;;;;4961737;28;20415;-74
2022/06/06 00:15:39;;;;;;;4.27;3.87;;;17.00;99.90;;;;;;4959805;28;20443;-75
2022/06/06 00:18:05;;;;;;;6.73;4.03;;;17.00;99.90;;;;;;4969988;28;20411;-75
2022/06/06 00:20:31;;;;;;;5.03;4.27;;;17.00;99.90;;;;;;4968955;28;20176;-74
2022/06/06 00:22:58;;;;;;;7.67;4.13;;;17.60;99.90;;;;;;4969108;28;20187;-74
2022/06/06 00:25:24;;;;;;;5.60;4.17;;;17.00;99.90;;;;;;4970815;28;20459;-75
2022/06/06 00:27:50;;;;;;;5.97;4.37;;;17.00;99.90;;;;;;4970566;28;20715;-74
2022/06/06 00:30:16;;;;;;;8.53;4.53;;;17.00;99.90;;;;;;4969534;28;20311;-74
2022/06/06 00:35:26;;;;;;;6.10;4.87;;;17.00;99.90;;;;;;4970468;28;20703;-75
2022/06/06 00:37:51;;;;;;;6.40;4.67;;;17.10;99.90;;;;;;4969288;28;20523;-74
2022/06/06 00:40:21;;;;;;;6.80;5.00;;;17.00;99.90;;;;;;4970529;28;20187;-77
2022/06/06 00:42:47;;;;;;;6.63;4.80;;;17.00;99.90;;;;;;4967767;28;20187;-74
2022/06/06 00:45:25;;;;;;;4.93;4.47;;;17.00;99.90;;;;;;4965154;28;20467;-75
2022/06/06 00:47:53;;;;;;;10.90;4.93;;;17.00;99.90;;;;;;4966758;28;20250;-74
2022/06/06 00:50:33;;;;;;;7.10;5.50;;;17.00;99.90;;;;;;4970049;28;20973;-75
2022/06/06 00:53:00;;;;;;;6.43;5.00;;;17.00;99.90;;;;;;4968720;28;20447;-75
2022/06/06 00:55:31;;;;;;;8.30;5.57;;;16.90;99.90;;;;;;4968915;28;20490;-75
2022/06/06 00:58:07;;;;;;;5.17;4.53;;;16.90;99.90;;;;;;4969240;28;20419;-75
2022/06/06 01:00:33;;;;;;;5.80;5.10;;;16.90;99.90;;;;;;4968770;28;20925;-75
2022/06/06 01:03:03;;;;;;;8.53;5.20;;;16.80;99.90;;;;;;4949225;28;21174;-75
2022/06/06 01:05:30;;;;;;;6.90;5.30;;;16.90;99.90;;;;;;4948924;28;20464;-74
2022/06/06 01:07:55;;;;;;;6.00;5.00;;;16.80;99.90;;;;;;4950432;28;20899;-75
2022/06/06 01:10:21;;;;;;;5.80;5.20;;;16.80;99.90;;;;;;4970332;28;20426;-76
2022/06/06 01:12:51;;;;;;;7.07;5.50;;;16.80;99.90;;;;;;4965128;28;20176;-75
2022/06/06 01:15:19;;;;;;;10.93;5.80;;;16.70;99.90;;;;;;4977781;28;20291;-75
2022/06/06 01:17:54;;;;;;;9.83;5.93;;;16.70;99.90;;;;;;4951425;28;20420;-74
2022/06/06 01:20:44;;;;;;;7.27;6.00;;;16.70;99.90;;;;;;4969052;28;20768;-75
2022/06/06 01:23:55;;;;;;;6.97;6.07;;;16.70;99.90;;;;;;4968798;28;20427;-75
2022/06/06 01:26:51;;;;;;;6.87;6.03;;;16.60;99.90;;;;;;4969731;28;20874;-74
2022/06/06 01:29:34;;;;;;;9.60;6.90;;;16.70;99.90;;;;;;4969211;28;20785;-74
2022/06/06 01:32:07;;;;;;;9.30;6.80;;;16.70;99.90;;;;;;4969162;28;20411;-74
2022/06/06 01:34:37;;;;;;;8.10;6.90;;;16.70;99.90;;;;;;4968860;28;20821;-75
2022/06/06 01:37:04;;;;;;;13.57;6.77;;;16.70;99.90;;;;;;4970148;28;20438;-75
2022/06/06 01:39:32;;;;;;;15.77;6.63;;;16.70;99.90;;;;;;4969339;28;20427;-75
2022/06/06 01:42:15;;;;;;;9.20;6.80;;;16.60;99.90;;;;;;4967752;28;20407;-75
2022/06/06 01:44:44;;;;;;;8.13;6.63;;;16.60;99.90;;;;;;4971216;28;20546;-75
2022/06/06 01:47:15;;;;;;;8.77;6.90;;;16.60;99.90;;;;;;4960204;28;20443;-75
2022/06/06 01:49:41;;;;;;;9.53;6.73;;;16.60;99.90;;;;;;4968648;28;20427;-75
2022/06/06 01:52:10;;;;;;;9.53;7.50;;;16.60;99.90;;;;;;4968668;28;20589;-74
2022/06/06 01:54:36;;;;;;;7.97;7.07;;;16.60;99.90;;;;;;4967934;28;20574;-73
2022/06/06 01:57:04;;;;;;;8.97;6.80;;;16.60;99.90;;;;;;4969227;28;20919;-75
2022/06/06 01:59:31;;;;;;;10.30;6.97;;;16.60;99.90;;;;;;4969450;28;20770;-74
2022/06/06 02:01:56;;;;;;;9.17;6.90;;;16.50;99.90;;;;;;4968832;28;20914;-75
2022/06/06 02:04:22;;;;;;;11.00;7.40;;;16.50;99.90;;;;;;4966441;28;20471;-76
2022/06/06 02:06:47;;;;;;;9.80;7.97;;;16.50;99.90;;;;;;4968248;28;20726;-75
2022/06/06 02:09:13;;;;;;;9.43;7.50;;;16.40;99.90;;;;;;4970136;28;20180;-75
2022/06/06 02:11:39;;;;;;;11.90;7.50;;;16.50;99.90;;;;;;4972691;28;20172;-75
2022/06/06 02:14:06;;;;;;;9.07;7.53;;;16.40;99.90;;;;;;4972476;28;20176;-74
2022/06/06 02:16:32;;;;;;;9.53;7.73;;;16.40;99.90;;;;;;4966489;28;20552;-74
2022/06/06 02:18:57;;;;;;;12.00;7.40;;;16.40;99.90;;;;;;4970699;28;20558;-74
2022/06/06 02:21:23;;;;;;;7.30;6.60;;;16.40;99.90;;;;;;4972197;28;20203;-75
2022/06/06 02:23:49;;;;;;;6.73;6.00;;;16.40;99.90;;;;;;4972570;28;20172;-74
2022/06/06 02:26:16;;;;;;;6.50;5.90;;;16.40;99.90;;;;;;4972536;28;20302;-74
2022/06/06 02:28:42;;;;;;;9.70;7.43;;;16.40;99.90;;;;;;4972908;28;20658;-75
2022/06/06 02:31:08;;;;;;;8.87;7.60;;;16.30;99.90;;;;;;4972612;28;20419;-74
2022/06/06 02:33:35;;;;;;;10.30;7.73;;;16.30;99.90;;;;;;4971854;28;20948;-75
2022/06/06 02:36:02;;;;;;;10.83;8.57;;;16.30;99.90;;;;;;4972398;28;20447;-74
2022/06/06 02:38:28;;;;;;;11.73;7.23;;;16.40;99.90;;;;;;4971684;28;20431;-74
2022/06/06 02:40:54;;;;;;;9.40;7.97;;;16.30;99.90;;;;;;4972268;28;20430;-73
2022/06/06 02:43:21;;;;;;;9.30;8.40;;;16.30;99.90;;;;;;4970591;28;20506;-73
2022/06/06 02:45:48;;;;;;;8.50;7.67;;;16.30;99.90;;;;;;4964312;28;20611;-74
2022/06/06 02:48:14;;;;;;;8.93;8.03;;;16.30;99.90;;;;;;4971664;28;20483;-73
2022/06/06 02:50:42;;;;;;;11.20;8.00;;;16.20;99.90;;;;;;4971908;28;20526;-74
2022/06/06 02:53:07;;;;;;;8.87;7.97;;;16.20;99.90;;;;;;4971357;28;20399;-73
2022/06/06 02:55:34;;;;;;;7.07;6.37;;;16.20;99.90;;;;;;4973039;28;20926;-74
2022/06/06 02:58:00;;;;;;;10.27;6.73;;;16.20;99.90;;;;;;4972109;28;20222;-74
2022/06/06 03:00:30;;;;;;;8.53;7.00;;;16.20;99.90;;;;;;4972234;28;20789;-72
2022/06/06 03:02:56;;;;;;;8.30;6.80;;;16.20;99.90;;;;;;4969378;28;20419;-74
2022/06/06 03:05:33;;;;;;;7.33;6.53;;;16.10;99.90;;;;;;4970426;28;20462;-74
2022/06/06 03:08:11;;;;;;;8.87;6.47;;;16.00;99.90;;;;;;4971959;28;20410;-74
2022/06/06 03:11:11;;;;;;;6.80;6.10;;;16.00;99.90;;;;;;4971806;28;20785;-73
2022/06/06 03:14:01;;;;;;;6.63;6.03;;;16.00;99.90;;;;;;4968873;28;20507;-73
2022/06/06 03:23:10;;;;;;;7.27;6.50;;;15.90;99.90;;;;;;4922333;28;20412;-74
2022/06/06 03:25:57;;;;;;;8.37;6.23;;;15.90;99.90;;;;;;4951019;28;20851;-75
2022/06/06 03:28:59;;;;;;;11.33;6.57;;;16.00;99.90;;;;;;4951152;29;20414;-74
2022/06/06 03:31:46;;;;;;;9.53;6.33;;;16.20;99.90;;;;;;4960636;28;20422;-74
2022/06/06 03:34:31;;;;;;;11.57;7.20;;;16.40;99.90;;;;;;4970924;28;20407;-74
2022/06/06 03:37:06;;;;;;;9.23;7.10;;;16.50;99.90;;;;;;4972576;28;20977;-72
2022/06/06 03:39:40;;;;;;;8.63;7.73;;;16.60;99.90;;;;;;4971446;28;20722;-74
2022/06/06 03:42:14;;;;;;;8.60;7.10;;;16.70;99.90;;;;;;4970559;28;20431;-73
2022/06/06 03:44:42;;;;;;;10.90;7.87;;;16.80;99.90;;;;;;4969096;28;20441;-74
2022/06/06 03:47:35;;;;;;;9.93;8.30;;;16.80;99.90;;;;;;4970253;28;20443;-74
2022/06/06 03:50:19;;;;;;;10.97;8.37;;;16.80;99.90;;;;;;4970864;28;20914;-74
2022/06/06 03:52:57;;;;;;;9.53;8.60;;;16.80;99.90;;;;;;4970249;28;20402;-74
2022/06/06 03:56:00;;;;;;;11.07;8.00;;;16.90;99.90;;;;;;4966397;28;20529;-74
2022/06/06 03:58:30;;;;;;;13.50;8.90;;;16.90;99.90;;;;;;4977650;28;20466;-74
2022/06/06 04:01:00;;;;;;;9.87;8.80;;;17.00;99.90;;;;;;4950035;29;20409;-73
2022/06/06 04:03:27;;;;;;;12.53;8.53;;;17.00;99.90;;;;;;4954796;28;20470;-74
2022/06/06 04:05:53;;;;;;;13.23;8.30;;;17.10;99.90;;;;;;4970913;28;20477;-74
2022/06/06 04:08:19;;;;;;;11.87;8.80;;;17.20;99.90;;;;;;4969030;28;20590;-74
2022/06/06 04:11:03;;;;;;;9.93;8.20;;;17.20;99.90;;;;;;4970535;28;20930;-74
2022/06/06 04:13:36;;;;;;;9.13;7.80;;;17.30;99.90;;;;;;4971193;28;20219;-74
2022/06/06 04:16:11;;;;;;;10.40;8.60;;;17.30;99.90;;;;;;4962490;28;20821;-73
2022/06/06 04:18:58;;;;;;;12.37;8.80;;;17.40;99.90;;;;;;4970100;28;20434;-75
2022/06/06 04:21:33;;;;;;;10.27;9.03;;;17.40;99.90;;;;;;4969338;28;20489;-74
2022/06/06 04:24:17;;;;;;;11.03;9.33;;;17.50;99.90;;;;;;4970032;28;20419;-74
2022/06/06 04:26:56;;;;;;;10.87;9.57;;;17.50;99.90;;;;;;4970756;28;20485;-75
2022/06/06 04:29:31;;;;;;;10.47;8.83;;;17.60;99.90;;;;;;4969051;28;20579;-75
2022/06/06 04:32:02;;;;;;;14.90;8.90;;;17.70;99.90;;;;;;4969481;28;20488;-75
2022/06/06 04:34:41;;;;;;;10.87;9.10;;;17.80;99.90;;;;;;4969732;28;20416;-75
2022/06/06 04:37:40;;;;;;;12.27;9.30;;;17.90;99.90;;;;;;4969732;28;20619;-75
2022/06/06 04:40:49;;;;;;;12.57;9.90;;;18.00;99.90;;;;;;4964722;28;20475;-75
2022/06/06 04:43:35;;;;;;;11.23;9.30;;;18.00;99.90;;;;;;4931755;28;20420;-75
2022/06/06 04:46:16;;;;;;;10.53;8.93;;;18.00;99.90;;;;;;4962459;28;20483;-75
2022/06/06 04:48:43;;;;;;;13.43;9.57;;;18.00;99.90;;;;;;4969127;28;20387;-75
2022/06/06 04:51:10;;;;;;;10.30;9.17;;;18.00;99.90;;;;;;4967788;28;20770;-75
2022/06/06 04:53:41;;;;;;;10.20;9.10;;;18.10;99.90;;;;;;4969613;28;20414;-73
2022/06/06 04:56:08;;;;;;;11.57;9.37;;;18.20;99.90;;;;;;4970291;28;20525;-74
2022/06/06 04:58:35;;;;;;;11.80;9.53;;;18.20;99.90;;;;;;4970374;28;20680;-73
2022/06/06 05:01:02;;;;;;;11.27;9.10;;;18.30;99.90;;;;;;4970149;28;20499;-75
2022/06/06 05:03:27;;;;;;;13.07;9.23;;;18.60;99.90;;;;;;4969109;28;20892;-75
2022/06/06 05:06:25;;;;;;;12.73;10.13;;;18.60;99.90;;;;;;4970104;28;20459;-74
2022/06/06 05:09:25;;;;;;;17.70;10.20;;;18.70;99.90;;;;;;4932828;28;20185;-75
2022/06/06 05:12:23;;;;;;;11.77;9.43;;;18.80;99.90;;;;;;4952639;28;20487;-75
2022/06/06 05:15:10;;;;;;;12.10;9.50;;;18.90;99.90;;;;;;4977574;28;20477;-74
2022/06/06 05:17:53;;;;;;;14.37;9.00;;;18.90;99.90;;;;;;4962037;28;20419;-75
2022/06/06 05:20:31;;;;;;;12.33;9.67;;;18.90;99.90;;;;;;4968540;28;20998;-75
2022/06/06 05:23:15;;;;;;;12.60;9.30;;;19.00;99.90;;;;;;4968747;28;20411;-75
2022/06/06 05:25:48;;;;;;;11.80;8.60;;;19.00;99.90;;;;;;4970299;28;20868;-75
2022/06/06 05:28:38;;;;;;;10.27;9.10;;;19.30;99.90;;;;;;4969130;28;20429;-75
2022/06/06 05:31:16;;;;;;;12.20;8.60;;;19.40;99.90;;;;;;4969575;28;20447;-75
2022/06/06 05:34:05;;;;;;;12.33;8.83;;;19.40;99.90;;;;;;4968945;28;20494;-75
2022/06/06 05:36:49;;;;;;;13.67;9.13;;;19.50;99.90;;;;;;4969269;28;20957;-74
2022/06/06 05:39:47;;;;;;;9.50;8.37;;;19.80;99.90;;;;;;4962160;28;20490;-74
2022/06/06 05:42:33;;;;;;;10.17;8.90;;;19.80;99.90;;;;;;4968375;28;20812;-75
2022/06/06 05:45:17;;;;;;;10.93;8.97;;;19.90;99.90;;;;;;4965299;28;20865;-75
2022/06/06 05:48:03;;;;;;;11.67;8.70;;;19.90;99.90;;;;;;4969793;28;20426;-75
2022/06/06 05:50:51;;;;;;;10.40;8.00;;;19.90;99.90;;;;;;4973595;28;20414;-75
2022/06/06 05:53:32;;;;;;;10.33;8.43;;;19.80;99.90;;;;;;4971598;28;20431;-74
2022/06/06 05:56:00;;;;;;;14.20;8.47;;;19.90;99.90;;;;;;4968279;28;20434;-73
2022/06/06 05:58:41;;;;;;;11.43;8.20;;;19.90;99.90;;;;;;4973014;28;20423;-75
2022/06/06 06:01:31;;;;;;;8.50;7.37;;;20.00;99.90;;;;;;4952232;29;20937;-74
2022/06/06 06:04:13;;;;;;;8.83;7.77;;;20.10;99.90;;;;;;4953362;28;20498;-75
2022/06/06 06:07:09;;;;;;;9.30;8.30;;;20.20;99.90;;;;;;4952639;28;20489;-75
2022/06/06 06:09:44;;;;;;;9.33;8.20;;;20.40;99.90;;;;;;4954259;28;20431;-75
2022/06/06 06:12:28;;;;;;;9.60;7.93;;;20.40;99.90;;;;;;4953427;28;20407;-75
2022/06/06 06:15:02;;;;;;;13.70;7.47;;;20.40;99.90;;;;;;4964956;28;20517;-74
2022/06/06 06:17:31;;;;;;;9.90;7.30;;;20.50;99.90;;;;;;4961458;28;20418;-75
2022/06/06 06:20:10;;;;;;;9.13;7.63;;;20.20;99.90;;;;;;4972283;28;20411;-75
2022/06/06 06:22:43;;;;;;;9.10;7.73;;;20.20;99.90;;;;;;4972188;28;20498;-75
2022/06/06 06:25:09;;;;;;;9.90;7.67;;;20.20;99.90;;;;;;4973001;28;20458;-75
2022/06/06 06:27:36;;;;;;;13.83;6.80;;;20.20;99.90;;;;;;4972990;28;20932;-75
2022/06/06 06:30:06;;;;;;;8.30;6.77;;;20.30;99.90;;;;;;4973452;28;20669;-74
2022/06/06 06:32:43;;;;;;;9.40;7.15;;;20.40;99.90;;;;;;4970351;28;20425;-75
2022/06/06 06:35:25;;;;;;;10.20;7.10;;;20.50;99.90;;;;;;4971051;28;20557;-75
2022/06/06 06:38:25;;;;;;;8.77;7.37;;;20.50;99.90;;;;;;4971952;28;20480;-73
2022/06/06 06:40:58;;;;;;;9.37;7.40;;;20.40;99.90;;;;;;4972709;28;20463;-75
2022/06/06 06:43:42;;;;;;;8.80;7.43;;;20.40;99.90;;;;;;4972510;28;20431;-74
2022/06/06 06:46:26;;;;;;;10.93;7.47;;;20.70;99.90;;;;;;4965725;28;20521;-74
2022/06/06 06:49:04;;;;;;;7.97;7.17;;;21.00;99.90;;;;;;4972156;28;20485;-74
2022/06/06 06:51:41;;;;;;;7.70;6.90;;;21.20;99.90;;;;;;4971600;28;20403;-75
2022/06/06 06:54:30;;;;;;;8.67;6.70;;;21.20;95.20;;;;;;4972164;28;21135;-73
2022/06/06 06:57:06;;;;;;;7.20;6.30;;;21.00;95.10;;;;;;4973239;28;20837;-75
2022/06/06 07:00:02;;;;;;;11.10;7.10;;;21.20;98.10;;;;;;4972484;28;20399;-75
2022/06/06 07:08:45;;;;;;;8.17;7.10;;;21.10;94.60;;;;;;4959986;28;20434;-75
2022/06/06 07:11:36;;;;;;;9.97;6.60;;;21.10;96.20;;;;;;4970411;28;20415;-75
2022/06/06 07:14:17;;;;;;;9.30;6.40;;;21.10;93.50;;;;;;4967895;28;20407;-74
2022/06/06 07:16:49;;;;;;;11.53;7.00;;;21.10;92.40;;;;;;4989551;28;20549;-75
2022/06/06 07:19:17;;;;;;;8.20;6.43;;;21.00;92.80;;;;;;4970624;28;20421;-75
2022/06/06 07:21:45;;;;;;;7.90;6.37;;;20.10;92.90;;;;;;4971564;28;20450;-75
2022/06/06 07:24:15;;;;;;;9.17;6.47;;;21.10;93.60;;;;;;4971652;28;20411;-75
2022/06/06 07:26:43;;;;;;;9.33;7.00;;;21.00;92.70;;;;;;4971905;28;20754;-75
2022/06/06 07:29:17;;;;;;;10.47;7.00;;;20.90;90.10;;;;;;4970140;28;20470;-76
2022/06/06 07:31:55;;;;;;;9.67;6.50;;;20.90;92.30;;;;;;4952020;28;20488;-74
2022/06/06 07:34:57;;;;;;;6.67;5.97;;;20.70;91.90;;;;;;4981296;28;20784;-75
2022/06/06 07:37:40;;;;;;;7.30;6.07;;;20.80;92.20;;;;;;4990317;28;20405;-73
2022/06/06 07:40:24;;;;;;;7.97;6.77;;;21.00;89.20;;;;;;4956010;28;20746;-75
2022/06/06 07:43:14;;;;;;;8.93;6.50;;;21.10;84.30;;;;;;4969960;28;20415;-74
2022/06/06 07:46:07;;;;;;;7.60;6.20;;;21.60;79.00;;;;;;4960620;28;20495;-74
2022/06/06 07:48:35;;;;;;;7.90;6.20;;;22.30;73.80;;;;;;4950138;28;20718;-73
2022/06/06 07:51:20;;;;;;;9.00;6.50;;;22.40;60.00;;;;;;4970193;28;20419;-73
2022/06/06 07:54:03;;;;;;;12.00;7.10;;;22.30;58.60;;;;;;4971046;28;20724;-74
2022/06/06 07:56:58;;;;;;;12.53;6.50;;;21.80;64.40;;;;;;4969972;28;20462;-74
2022/06/06 07:59:46;;;;;;;11.30;7.00;;;21.50;71.90;;;;;;4965348;28;20521;-75
2022/06/06 08:02:20;;;;;;;7.07;5.70;;;21.40;74.20;;;;;;4970406;28;20450;-74
2022/06/06 08:05:01;;;;;;;10.90;6.10;;;21.90;67.10;;;;;;4970270;28;20433;-74
2022/06/06 08:07:37;;;;;;;8.53;5.93;;;22.40;58.40;;;;;;4970764;28;20933;-75
2022/06/06 08:10:40;;;;;;;8.30;6.40;;;22.40;52.60;;;;;;4969832;28;20617;-75
2022/06/06 08:13:37;;;;;;;8.87;6.53;;;22.60;48.70;;;;;;4970606;28;20410;-74
2022/06/06 08:16:28;;;;;;;8.20;6.50;;;23.10;49.00;;;;;;4961594;28;20489;-74
2022/06/06 08:19:25;;;;;;;7.47;6.67;;;22.80;48.80;;;;;;4966790;28;20971;-74
2022/06/06 08:21:51;;;;;;;7.90;6.70;;;22.70;48.60;;;;;;4970667;28;20434;-75
2022/06/06 08:24:20;;;;;;;7.00;6.30;;;22.80;48.70;;;;;;4970456;28;20826;-73
2022/06/06 08:26:48;;;;;;;7.90;6.73;;;22.90;48.90;;;;;;4970795;28;20227;-75
2022/06/06 08:29:15;;;;;;;7.40;6.10;;;23.20;49.20;;;;;;4970642;28;20430;-73
2022/06/06 08:31:41;;;;;;;9.03;6.57;;;23.10;49.00;;;;;;4970102;28;20457;-75
2022/06/06 08:34:07;;;;;;;7.17;6.00;;;23.30;49.20;;;;;;4968918;28;20532;-74
2022/06/06 08:36:51;;;;;;;7.83;6.23;;;23.90;49.60;;;;;;4970442;28;20523;-75
2022/06/06 08:39:31;;;;;;;7.13;6.20;;;24.20;42.40;;;;;;4964677;28;20179;-74
2022/06/06 08:42:19;;;;;;;13.97;6.63;;;24.40;36.60;;;;;;4970287;28;20916;-75
2022/06/06 08:45:09;;;;;;;7.93;6.40;;;24.40;31.00;;;;;;4969517;28;21077;-75
2022/06/06 08:48:02;;;;;;;6.20;5.60;;;24.00;36.50;;;;;;4965324;28;20431;-75
2022/06/06 08:50:58;;;;;;;8.17;6.10;;;24.00;30.10;;;;;;4970473;28;20454;-75
2022/06/06 08:53:36;;;;;;;6.37;5.77;;;24.50;27.60;;;;;;4970317;28;20406;-74
2022/06/06 08:56:28;;;;;;;7.83;5.87;;;24.30;28.30;;;;;;4970725;28;20474;-74
2022/06/06 08:59:23;;;;;;;7.50;5.27;;;24.50;29.50;;;;;;4970640;28;20407;-75
2022/06/06 09:02:07;;;;;;;6.33;5.50;;;25.20;24.80;;;;;;4970428;28;20494;-74
2022/06/06 09:05:03;;;;;;;7.10;4.67;;;25.50;23.20;;;;;;4970172;28;20438;-75
2022/06/06 09:07:58;;;;;;;6.80;4.40;;;26.60;13.60;;;;;;4951139;28;20407;-75
2022/06/06 09:10:51;;;;;;;6.13;4.50;;;27.60;5.40;;;;;;4951697;28;20512;-75
2022/06/06 09:13:54;;;;;;;4.80;4.30;;;27.90;1.00;;;;;;4963997;28;20493;-75
2022/06/06 09:16:58;;;;;;;4.93;4.27;;;27.00;1.00;;;;;;4957428;28;20450;-75
2022/06/06 09:20:01;;;;;;;5.63;4.40;;;27.90;1.00;;;;;;4908375;29;20436;-75
2022/06/06 09:22:38;;;;;;;6.00;4.40;;;28.40;1.00;;;;;;4909418;29;20509;-75
2022/06/06 09:25:25;;;;;;;6.47;4.00;;;27.60;1.00;;;;;;4957673;28;20210;-75
2022/06/06 09:28:12;;;;;;;9.50;4.57;;;27.80;1.00;;;;;;4970071;28;20410;-76
2022/06/06 09:31:06;;;;;;;7.27;4.23;;;27.10;1.00;;;;;;4970653;28;20167;-75
2022/06/06 09:33:49;;;;;;;5.70;3.50;;;26.10;1.00;;;;;;4970201;28;20923;-76
2022/06/06 09:36:26;;;;;;;8.83;3.70;;;25.80;1.00;;;;;;4969936;28;20427;-75
2022/06/06 09:39:19;;;;;;;5.73;3.10;;;27.50;1.00;;;;;;4969821;28;20812;-75
2022/06/06 09:42:15;;;;;;;3.73;2.60;;;29.40;1.00;;;;;;4969801;28;20473;-76
2022/06/06 09:45:19;;;;;;;3.67;2.70;;;29.60;1.00;;;;;;4933101;28;20204;-76
2022/06/06 09:48:06;;;;;;;4.43;2.80;;;30.80;1.00;;;;;;4965620;28;20182;-75
2022/06/06 09:51:05;;;;;;;5.35;3.00;;;31.90;1.00;;;;;;4970012;28;20253;-76
2022/06/06 09:59:01;;;;;;;3.67;2.90;;;31.20;1.00;;;;;;4967578;28;20207;-76
2022/06/06 09:59:57;;;;;;;4.53;3.40;;;29.70;1.00;;;;;;4970099;28;20595;-76
2022/06/06 10:02:28;;;;;;;5.53;3.40;;;29.20;1.00;;;;;;4968597;28;20206;-77
2022/06/06 10:05:22;;;;;;;4.50;3.10;;;28.20;1.00;;;;;;4968579;28;20678;-74
2022/06/06 10:08:21;;;;;;;4.10;3.40;;;27.10;1.00;;;;;;4969135;28;20226;-75
2022/06/06 10:11:17;;;;;;;5.60;3.40;;;26.20;1.00;;;;;;4970349;28;20403;-73
2022/06/06 10:14:01;;;;;;;5.27;3.70;;;25.60;1.00;;;;;;4967936;28;20900;-75
2022/06/06 10:16:56;;;;;;;4.47;3.23;;;25.90;1.00;;;;;;4958249;28;20451;-75
2022/06/06 10:19:42;;;;;;;5.10;3.80;;;26.40;1.00;;;;;;4949480;28;20411;-75
2022/06/06 10:22:21;;;;;;;4.60;4.10;;;26.50;1.00;;;;;;4962140;28;20477;-75
2022/06/06 10:24:52;;;;;;;7.50;3.40;;;27.50;1.00;;;;;;4968215;28;20888;-76
2022/06/06 10:27:58;;;;;;;6.10;3.07;;;30.20;1.00;;;;;;4969383;28;20175;-75
2022/06/06 10:30:44;;;;;;;5.82;3.05;;;32.00;1.00;;;;;;4970838;28;20175;-75
2022/06/06 10:33:24;;;;;;;4.55;2.95;;;32.70;1.00;;;;;;4970971;28;20230;-76
2022/06/06 10:36:18;;;;;;;4.20;2.97;;;33.40;1.00;;;;;;4971405;28;20202;-76
2022/06/06 10:39:01;;;;;;;4.50;2.90;;;31.10;1.00;;;;;;4971869;28;20183;-76
2022/06/06 10:42:09;;;;;;;4.30;3.10;;;29.40;1.00;;;;;;4971750;28;20179;-75
2022/06/06 10:45:02;;;;;;;5.17;3.20;;;28.00;1.00;;;;;;4972763;28;20574;-76
2022/06/06 10:47:40;;;;;;;6.63;3.40;;;26.80;1.00;;;;;;4967502;28;20179;-75
2022/06/06 10:50:27;;;;;;;8.30;3.73;;;26.10;1.00;;;;;;4972116;28;20179;-75
2022/06/06 10:53:04;;;;;;;4.03;3.33;;;25.90;1.00;;;;;;4971290;28;20413;-75
2022/06/06 10:55:48;;;;;;;4.90;3.13;;;26.90;1.00;;;;;;4971327;28;20495;-75
2022/06/06 10:58:34;;;;;;;5.20;3.43;;;27.70;1.00;;;;;;4971812;28;20224;-75
2022/06/06 11:01:18;;;;;;;3.90;3.03;;;28.70;1.00;;;;;;4972516;28;20847;-75
2022/06/06 11:04:14;;;;;;;5.80;3.47;;;29.60;1.00;;;;;;4971362;28;20176;-75
2022/06/06 11:06:58;;;;;;;4.00;3.43;;;29.80;1.00;;;;;;4972206;28;20222;-76
2022/06/06 11:09:50;;;;;;;5.40;3.93;;;29.20;1.00;;;;;;4970473;28;20207;-75
2022/06/06 11:12:54;;;;;;;6.10;3.67;;;29.20;1.00;;;;;;4970774;28;20175;-76
2022/06/06 11:15:19;;;;;;;4.87;3.60;;;30.50;1.00;;;;;;4979651;28;20203;-76
2022/06/06 11:18:18;;;;;;;5.10;3.70;;;31.00;1.00;;;;;;4953740;28;20180;-75
2022/06/06 11:21:08;;;;;;;4.72;3.80;;;31.80;1.00;;;;;;4952417;28;20214;-76
2022/06/06 11:23:47;;;;;;;3.97;3.40;;;32.50;1.00;;;;;;4952368;29;20203;-75
2022/06/06 11:26:34;;;;;;;4.07;3.10;;;32.00;1.00;;;;;;4963855;28;20586;-75
2022/06/06 11:29:16;;;;;;;6.60;3.50;;;30.40;1.00;;;;;;4973627;28;20176;-76
2022/06/06 11:32:00;;;;;;;6.53;3.13;;;28.80;1.00;;;;;;4969971;28;20302;-75
2022/06/06 11:34:50;;;;;;;5.33;2.73;;;28.30;1.00;;;;;;4970841;28;20546;-75
2022/06/06 11:37:39;;;;;;;6.73;3.10;;;28.80;1.00;;;;;;4970740;28;20195;-76
2022/06/06 11:40:35;;;;;;;4.30;3.30;;;29.20;1.00;;;;;;4971667;28;20606;-75
2022/06/06 11:43:23;;;;;;;4.70;3.30;;;27.50;1.00;;;;;;4969390;28;20642;-75
2022/06/06 11:46:13;;;;;;;6.77;4.40;;;25.40;1.00;;;;;;4966179;28;20207;-75
2022/06/06 11:48:59;;;;;;;11.10;5.30;;;23.70;25.20;;;;;;4970480;28;20965;-74
2022/06/06 11:52:14;;;;;;;7.60;5.30;;;22.40;48.90;;;;;;4970205;28;20437;-73
2022/06/06 11:55:19;;;;;;;17.90;5.10;;;22.00;83.70;;;;;;4969671;28;20617;-75
2022/06/06 11:57:54;;;;;;;7.87;4.90;;;22.20;91.20;;;;;;4968000;28;20443;-75
2022/06/06 12:00:36;;;;;;;5.77;4.43;;;23.00;88.60;;;;;;4970127;28;20777;-76
2022/06/06 12:03:48;;;;;;;5.77;4.63;;;24.30;50.20;;;;;;4969723;28;20463;-74
2022/06/06 12:06:21;;;;;;;6.07;3.83;;;26.90;35.90;;;;;;4941220;28;20485;-75
2022/06/06 12:08:54;;;;;;;5.67;3.67;;;30.10;1.00;;;;;;4970862;28;20408;-75
2022/06/06 12:12:01;;;;;;;5.32;3.50;;;32.20;1.00;;;;;;4970766;28;20552;-76
2022/06/06 12:14:39;;;;;;;3.42;2.88;;;34.00;1.00;;;;;;4970316;28;20254;-75
2022/06/06 12:17:29;;;;;;;9.77;3.60;;;33.50;1.00;;;;;;4956094;28;20670;-76
2022/06/06 12:20:38;;;;;;;5.50;3.85;;;31.80;1.00;;;;;;4949378;29;20256;-74
2022/06/06 12:23:20;;;;;;;4.30;3.30;;;29.60;1.00;;;;;;4927896;28;20188;-76
2022/06/06 12:26:07;;;;;;;6.77;4.03;;;27.70;1.00;;;;;;4969263;28;20233;-75
2022/06/06 12:29:03;;;;;;;3.97;3.17;;;26.60;1.00;;;;;;4969448;28;20172;-75
2022/06/06 12:31:36;;;;;;;6.07;3.90;;;25.80;1.00;;;;;;4969906;28;20257;-76
2022/06/06 12:34:07;;;;;;;5.90;4.20;;;25.20;5.60;;;;;;4969665;28;20477;-75
2022/06/06 12:36:55;;;;;;;5.60;4.00;;;24.70;15.20;;;;;;4970195;28;20545;-75
2022/06/06 12:39:39;;;;;;;3.90;3.13;;;24.40;12.30;;;;;;4962412;28;20826;-75
2022/06/06 12:42:17;;;;;;;4.97;3.40;;;24.80;5.00;;;;;;4969619;28;20885;-75
2022/06/06 12:44:57;;;;;;;4.97;3.10;;;26.00;4.50;;;;;;4962397;28;20893;-75
2022/06/06 12:47:42;;;;;;;4.07;2.97;;;27.70;1.00;;;;;;4965529;28;20496;-75
2022/06/06 12:50:36;;;;;;;5.10;3.10;;;29.00;1.00;;;;;;4970235;28;20399;-76
2022/06/06 12:53:28;;;;;;;5.07;2.97;;;28.10;1.00;;;;;;4969472;28;20179;-75
2022/06/06 12:56:20;;;;;;;3.60;2.90;;;27.30;1.00;;;;;;4970808;28;20669;-75
2022/06/06 12:59:06;;;;;;;4.43;3.10;;;26.80;1.00;;;;;;4970550;28;20395;-75
2022/06/06 13:01:50;;;;;;;5.17;2.97;;;26.60;1.00;;;;;;4968382;28;20414;-75
2022/06/06 13:04:30;;;;;;;4.63;2.90;;;27.40;1.00;;;;;;4969080;28;20430;-75
2022/06/06 13:07:27;;;;;;;3.30;3.00;;;27.70;1.00;;;;;;4970313;28;20559;-75
2022/06/06 13:09:55;;;;;;;5.70;2.80;;;27.00;1.00;;;;;;4970666;28;20981;-75
2022/06/06 13:13:02;;;;;;;6.23;2.90;;;26.50;1.00;;;;;;4969609;28;20426;-75
2022/06/06 13:15:45;;;;;;;4.30;3.23;;;26.20;1.00;;;;;;4978416;28;20485;-75
2022/06/06 13:18:45;;;;;;;3.93;2.90;;;26.00;1.00;;;;;;4950350;29;20439;-75
2022/06/06 13:21:32;;;;;;;4.10;3.00;;;26.00;1.00;;;;;;4956002;28;20441;-75
2022/06/06 13:24:16;;;;;;;7.10;3.27;;;26.80;1.00;;;;;;4969863;28;20414;-75
2022/06/06 13:26:50;;;;;;;6.77;2.83;;;28.00;1.00;;;;;;4968970;28;20503;-74
2022/06/06 13:29:42;;;;;;;4.37;3.13;;;28.20;1.00;;;;;;4970143;28;20170;-75
2022/06/06 13:32:28;;;;;;;3.50;2.83;;;28.30;1.00;;;;;;4969182;28;20505;-75
2022/06/06 13:35:20;;;;;;;5.17;3.17;;;28.10;1.00;;;;;;4969296;28;20267;-75
2022/06/06 13:38:08;;;;;;;4.47;2.97;;;28.10;1.00;;;;;;4968192;28;20407;-75
2022/06/06 13:40:41;;;;;;;4.70;2.70;;;27.90;1.00;;;;;;4968683;28;20171;-75
2022/06/06 13:43:31;;;;;;;3.60;3.07;;;28.10;1.00;;;;;;4969719;28;20167;-76
2022/06/06 13:46:44;;;;;;;6.80;3.20;;;29.10;1.00;;;;;;4961667;28;20699;-74
2022/06/06 13:49:20;;;;;;;4.00;2.90;;;29.90;1.00;;;;;;4964977;28;20194;-75
2022/06/06 13:52:04;;;;;;;7.60;3.03;;;30.70;1.00;;;;;;4969660;28;20466;-75
2022/06/06 13:54:33;;;;;;;4.45;3.00;;;31.50;1.00;;;;;;4969320;28;20163;-75
2022/06/06 13:57:20;;;;;;;4.13;3.15;;;31.80;1.00;;;;;;4968235;28;20760;-76
2022/06/06 14:00:00;;;;;;;9.38;2.97;;;31.20;1.00;;;;;;4969551;28;20321;-76
2022/06/06 14:02:53;;;;;;;3.30;3.00;;;31.10;1.00;;;;;;4968954;28;20576;-76
2022/06/06 14:05:37;;;;;;;3.50;2.70;;;32.00;1.00;;;;;;4972013;28;20353;-76
2022/06/06 14:08:10;;;;;;;4.00;3.10;;;33.80;1.00;;;;;;4973462;28;20190;-75
2022/06/06 14:10:53;;;;;;;6.88;3.30;;;33.30;1.00;;;;;;4973637;28;20171;-75
2022/06/06 14:13:33;;;;;;;4.88;3.33;;;31.90;1.00;;;;;;4973078;28;20677;-75
2022/06/06 14:16:00;;;;;;;5.30;3.40;;;30.50;1.00;;;;;;4965402;28;20226;-76